sensor_id;sensor_type;location;lat;lon;timestamp;pressure;altitude;pressure_sealevel;temperature;humidity
54369;BME280;40266;52.434;17.056;2022-07-29T00:01:13;101106.73;;;12.54;69.46
54369;BME280;40266;52.434;17.056;2022-07-29T00:04:44;101104.94;;;12.55;69.88
54369;BME280;40266;52.434;17.056;2022-07-29T00:07:56;101105.47;;;12.55;69.84
54369;BME280;40266;52.434;17.056;2022-07-29T00:11:04;101110.90;;;12.55;70.01
54369;BME280;40266;52.434;17.056;2022-07-29T00:14:55;101105.34;;;12.54;70.02
54369;BME280;40266;52.434;17.056;2022-07-29T00:18:08;101104.46;;;12.54;70.02
54369;BME280;40266;52.434;17.056;2022-07-29T00:21:44;101107.80;;;12.53;70.30
54369;BME280;40266;52.434;17.056;2022-07-29T00:24:43;101109.77;;;12.50;70.22
54369;BME280;40266;52.434;17.056;2022-07-29T00:31:13;101117.86;;;12.48;70.45
54369;BME280;40266;52.434;17.056;2022-07-29T00:35:05;101116.01;;;12.44;70.58
54369;BME280;40266;52.434;17.056;2022-07-29T00:38:35;101117.64;;;12.41;70.79
54369;BME280;40266;52.434;17.056;2022-07-29T00:42:01;101115.59;;;12.38;70.93
54369;BME280;40266;52.434;17.056;2022-07-29T00:53:18;101109.77;;;12.30;71.54
54369;BME280;40266;52.434;17.056;2022-07-29T00:57:16;101111.56;;;12.29;71.61
54369;BME280;40266;52.434;17.056;2022-07-29T01:00:47;101105.80;;;12.28;71.90
54369;BME280;40266;52.434;17.056;2022-07-29T01:04:15;101108.25;;;12.28;72.33
54369;BME280;40266;52.434;17.056;2022-07-29T01:11:03;101109.11;;;12.28;73.09
54369;BME280;40266;52.434;17.056;2022-07-29T01:14:46;101110.66;;;12.30;73.04
54369;BME280;40266;52.434;17.056;2022-07-29T01:34:03;101103.40;;;12.25;74.65
54369;BME280;40266;52.434;17.056;2022-07-29T01:45:53;101099.69;;;12.26;75.55
54369;BME280;40266;52.434;17.056;2022-07-29T01:52:39;101098.98;;;12.27;76.02
54369;BME280;40266;52.434;17.056;2022-07-29T01:56:22;101091.81;;;12.26;75.89
54369;BME280;40266;52.434;17.056;2022-07-29T01:59:51;101086.92;;;12.25;76.36
54369;BME280;40266;52.434;17.056;2022-07-29T02:03:51;101083.21;;;12.27;76.38
54369;BME280;40266;52.434;17.056;2022-07-29T02:07:05;101078.83;;;12.28;76.52
54369;BME280;40266;52.434;17.056;2022-07-29T02:18:37;101090.34;;;12.30;77.17
54369;BME280;40266;52.434;17.056;2022-07-29T02:28:43;101073.20;;;12.30;78.12
54369;BME280;40266;52.434;17.056;2022-07-29T02:46:28;101070.55;;;12.30;79.27
54369;BME280;40266;52.434;17.056;2022-07-29T02:53:40;101069.59;;;12.35;79.34
54369;BME280;40266;52.434;17.056;2022-07-29T02:56:51;101072.72;;;12.37;79.73
54369;BME280;40266;52.434;17.056;2022-07-29T03:11:25;101061.59;;;12.41;79.97
54369;BME280;40266;52.434;17.056;2022-07-29T03:22:10;101056.48;;;12.42;80.28
54369;BME280;40266;52.434;17.056;2022-07-29T03:25:52;101054.17;;;12.44;80.33
54369;BME280;40266;52.434;17.056;2022-07-29T03:29:24;101049.27;;;12.44;80.23
54369;BME280;40266;52.434;17.056;2022-07-29T03:32:39;101057.88;;;12.43;80.39
54369;BME280;40266;52.434;17.056;2022-07-29T03:36:12;101057.32;;;12.44;80.54
54369;BME280;40266;52.434;17.056;2022-07-29T03:46:22;101056.86;;;12.50;81.61
54369;BME280;40266;52.434;17.056;2022-07-29T03:53:22;101056.19;;;12.58;81.89
54369;BME280;40266;52.434;17.056;2022-07-29T03:56:48;101054.90;;;12.62;81.75
54369;BME280;40266;52.434;17.056;2022-07-29T04:00:10;101049.23;;;12.64;81.63
54369;BME280;40266;52.434;17.056;2022-07-29T04:03:41;101054.92;;;12.69;81.79
54369;BME280;40266;52.434;17.056;2022-07-29T04:07:20;101053.98;;;12.71;81.90
54369;BME280;40266;52.434;17.056;2022-07-29T04:10:24;101064.18;;;12.79;81.79
54369;BME280;40266;52.434;17.056;2022-07-29T04:13:37;101062.31;;;12.84;82.05
54369;BME280;40266;52.434;17.056;2022-07-29T04:17:31;101064.11;;;12.91;82.32
54369;BME280;40266;52.434;17.056;2022-07-29T04:21:15;101067.30;;;12.98;81.99
54369;BME280;40266;52.434;17.056;2022-07-29T04:24:35;101071.81;;;13.08;81.96
54369;BME280;40266;52.434;17.056;2022-07-29T04:31:22;101074.31;;;13.32;82.29
54369;BME280;40266;52.434;17.056;2022-07-29T04:38:21;101081.91;;;13.67;81.77
54369;BME280;40266;52.434;17.056;2022-07-29T04:41:43;101087.11;;;13.78;81.82
54369;BME280;40266;52.434;17.056;2022-07-29T04:45:12;101084.90;;;13.89;81.47
54369;BME280;40266;52.434;17.056;2022-07-29T04:48:26;101090.45;;;14.06;81.33
54369;BME280;40266;52.434;17.056;2022-07-29T04:58:29;101085.98;;;14.36;80.98
54369;BME280;40266;52.434;17.056;2022-07-29T05:05:51;101081.92;;;14.64;80.94
54369;BME280;40266;52.434;17.056;2022-07-29T05:09:29;101083.19;;;14.81;80.76
54369;BME280;40266;52.434;17.056;2022-07-29T05:12:33;101081.42;;;15.00;80.34
54369;BME280;40266;52.434;17.056;2022-07-29T05:15:50;101075.08;;;15.30;79.79
54369;BME280;40266;52.434;17.056;2022-07-29T05:19:07;101068.64;;;16.00;79.06
54369;BME280;40266;52.434;17.056;2022-07-29T05:22:07;101070.05;;;16.51;77.54
54369;BME280;40266;52.434;17.056;2022-07-29T05:25:16;101068.57;;;16.92;76.41
54369;BME280;40266;52.434;17.056;2022-07-29T05:28:08;101069.44;;;17.47;74.86
54369;BME280;40266;52.434;17.056;2022-07-29T05:30:54;101067.83;;;18.04;73.13
54369;BME280;40266;52.434;17.056;2022-07-29T05:34:03;101072.39;;;18.75;71.04
54369;BME280;40266;52.434;17.056;2022-07-29T05:37:15;101068.04;;;19.72;69.51
54369;BME280;40266;52.434;17.056;2022-07-29T05:40:02;101069.21;;;20.33;67.83
54369;BME280;40266;52.434;17.056;2022-07-29T05:43:08;101067.55;;;20.10;67.20
54369;BME280;40266;52.434;17.056;2022-07-29T05:46:16;101070.52;;;19.94;66.40
54369;BME280;40266;52.434;17.056;2022-07-29T05:49:06;101074.02;;;19.98;65.90
54369;BME280;40266;52.434;17.056;2022-07-29T05:52:10;101073.98;;;19.78;65.28
54369;BME280;40266;52.434;17.056;2022-07-29T05:55:25;101074.71;;;19.58;65.71
54369;BME280;40266;52.434;17.056;2022-07-29T05:58:31;101074.52;;;19.51;65.67
54369;BME280;40266;52.434;17.056;2022-07-29T06:01:38;101070.38;;;19.45;65.64
54369;BME280;40266;52.434;17.056;2022-07-29T06:04:25;101073.64;;;19.44;65.27
54369;BME280;40266;52.434;17.056;2022-07-29T06:07:18;101075.38;;;19.52;65.15
54369;BME280;40266;52.434;17.056;2022-07-29T06:10:07;101076.27;;;19.70;64.86
54369;BME280;40266;52.434;17.056;2022-07-29T06:12:53;101075.33;;;20.07;63.94
54369;BME280;40266;52.434;17.056;2022-07-29T06:15:39;101074.84;;;20.30;63.84
54369;BME280;40266;52.434;17.056;2022-07-29T06:18:22;101069.12;;;20.49;63.68
54369;BME280;40266;52.434;17.056;2022-07-29T06:21:28;101064.27;;;20.77;62.72
54369;BME280;40266;52.434;17.056;2022-07-29T06:24:15;101063.15;;;20.88;62.25
54369;BME280;40266;52.434;17.056;2022-07-29T06:27:02;101058.05;;;20.87;61.26
54369;BME280;40266;52.434;17.056;2022-07-29T06:29:54;101060.34;;;20.80;60.05
54369;BME280;40266;52.434;17.056;2022-07-29T06:32:40;101058.44;;;20.73;60.43
54369;BME280;40266;52.434;17.056;2022-07-29T06:35:25;101061.52;;;20.69;60.91
54369;BME280;40266;52.434;17.056;2022-07-29T06:38:23;101061.04;;;20.68;60.58
54369;BME280;40266;52.434;17.056;2022-07-29T06:41:22;101065.66;;;20.71;60.41
54369;BME280;40266;52.434;17.056;2022-07-29T06:44:06;101067.09;;;20.74;59.27
54369;BME280;40266;52.434;17.056;2022-07-29T06:46:49;101070.52;;;20.76;57.09
54369;BME280;40266;52.434;17.056;2022-07-29T06:49:40;101074.20;;;20.90;57.55
54369;BME280;40266;52.434;17.056;2022-07-29T06:52:24;101069.06;;;21.13;57.89
54369;BME280;40266;52.434;17.056;2022-07-29T06:55:08;101066.75;;;21.48;56.54
54369;BME280;40266;52.434;17.056;2022-07-29T06:58:06;101063.92;;;21.91;54.66
54369;BME280;40266;52.434;17.056;2022-07-29T07:00:50;101061.86;;;22.05;55.50
54369;BME280;40266;52.434;17.056;2022-07-29T07:03:33;101059.88;;;22.11;54.92
54369;BME280;40266;52.434;17.056;2022-07-29T07:06:16;101058.49;;;22.11;54.82
54369;BME280;40266;52.434;17.056;2022-07-29T07:09:03;101059.51;;;22.08;53.09
54369;BME280;40266;52.434;17.056;2022-07-29T07:11:46;101057.62;;;22.07;53.90
54369;BME280;40266;52.434;17.056;2022-07-29T07:14:32;101055.66;;;22.10;53.55
54369;BME280;40266;52.434;17.056;2022-07-29T07:17:15;101054.38;;;22.11;52.45
54369;BME280;40266;52.434;17.056;2022-07-29T07:20:01;101054.16;;;22.12;52.05
54369;BME280;40266;52.434;17.056;2022-07-29T07:22:44;101056.89;;;22.14;51.41
54369;BME280;40266;52.434;17.056;2022-07-29T07:25:48;101053.62;;;22.25;51.12
54369;BME280;40266;52.434;17.056;2022-07-29T07:28:31;101050.23;;;22.33;50.49
54369;BME280;40266;52.434;17.056;2022-07-29T07:31:19;101046.72;;;22.41;50.27
54369;BME280;40266;52.434;17.056;2022-07-29T07:34:03;101045.10;;;22.53;49.43
54369;BME280;40266;52.434;17.056;2022-07-29T07:36:46;101050.70;;;22.64;50.02
54369;BME280;40266;52.434;17.056;2022-07-29T07:39:34;101051.02;;;22.64;47.77
54369;BME280;40266;52.434;17.056;2022-07-29T07:42:19;101050.65;;;22.62;48.03
54369;BME280;40266;52.434;17.056;2022-07-29T07:45:02;101049.14;;;22.60;48.81
54369;BME280;40266;52.434;17.056;2022-07-29T07:47:55;101046.27;;;22.63;49.38
54369;BME280;40266;52.434;17.056;2022-07-29T07:50:38;101049.34;;;22.63;48.15
54369;BME280;40266;52.434;17.056;2022-07-29T07:53:25;101048.80;;;22.62;47.89
54369;BME280;40266;52.434;17.056;2022-07-29T07:56:08;101052.21;;;22.65;47.70
54369;BME280;40266;52.434;17.056;2022-07-29T07:59:00;101053.90;;;22.69;48.26
54369;BME280;40266;52.434;17.056;2022-07-29T08:01:45;101056.04;;;22.75;47.99
54369;BME280;40266;52.434;17.056;2022-07-29T08:04:47;101056.32;;;22.82;48.15
54369;BME280;40266;52.434;17.056;2022-07-29T08:07:30;101056.40;;;22.89;48.39
54369;BME280;40266;52.434;17.056;2022-07-29T08:10:15;101060.44;;;22.93;48.49
54369;BME280;40266;52.434;17.056;2022-07-29T08:13:23;101062.34;;;22.91;46.90
54369;BME280;40266;52.434;17.056;2022-07-29T08:16:07;101061.41;;;22.89;47.04
54369;BME280;40266;52.434;17.056;2022-07-29T08:18:58;101064.06;;;22.89;46.89
54369;BME280;40266;52.434;17.056;2022-07-29T08:21:41;101064.89;;;22.82;46.53
54369;BME280;40266;52.434;17.056;2022-07-29T08:24:27;101064.25;;;22.83;47.75
54369;BME280;40266;52.434;17.056;2022-07-29T08:27:37;101065.69;;;22.83;46.70
54369;BME280;40266;52.434;17.056;2022-07-29T08:30:25;101065.30;;;22.83;47.29
54369;BME280;40266;52.434;17.056;2022-07-29T08:33:08;101070.79;;;22.87;47.06
54369;BME280;40266;52.434;17.056;2022-07-29T08:36:13;101073.48;;;22.89;47.24
54369;BME280;40266;52.434;17.056;2022-07-29T08:38:59;101074.77;;;22.91;46.74
54369;BME280;40266;52.434;17.056;2022-07-29T08:41:45;101075.14;;;22.91;46.58
54369;BME280;40266;52.434;17.056;2022-07-29T08:44:39;101079.52;;;22.95;46.88
54369;BME280;40266;52.434;17.056;2022-07-29T08:47:23;101079.52;;;22.99;46.72
54369;BME280;40266;52.434;17.056;2022-07-29T08:50:09;101078.06;;;22.99;46.62
54369;BME280;40266;52.434;17.056;2022-07-29T08:52:53;101076.11;;;22.99;46.63
54369;BME280;40266;52.434;17.056;2022-07-29T08:55:47;101072.71;;;23.00;46.39
54369;BME280;40266;52.434;17.056;2022-07-29T08:58:32;101076.45;;;23.00;46.58
54369;BME280;40266;52.434;17.056;2022-07-29T09:01:23;101075.10;;;22.98;45.90
54369;BME280;40266;52.434;17.056;2022-07-29T09:04:19;101077.51;;;22.96;45.16
54369;BME280;40266;52.434;17.056;2022-07-29T09:07:04;101079.20;;;22.98;45.22
54369;BME280;40266;52.434;17.056;2022-07-29T09:09:48;101075.14;;;23.03;45.15
54369;BME280;40266;52.434;17.056;2022-07-29T09:12:32;101070.23;;;23.02;44.67
54369;BME280;40266;52.434;17.056;2022-07-29T09:15:20;101075.58;;;23.02;44.39
54369;BME280;40266;52.434;17.056;2022-07-29T09:18:03;101077.89;;;23.05;45.20
54369;BME280;40266;52.434;17.056;2022-07-29T09:20:52;101078.47;;;23.10;44.39
54369;BME280;40266;52.434;17.056;2022-07-29T09:24:06;101074.77;;;23.14;43.96
54369;BME280;40266;52.434;17.056;2022-07-29T09:26:59;101071.94;;;23.23;45.16
54369;BME280;40266;52.434;17.056;2022-07-29T09:30:09;101066.41;;;23.34;44.80
54369;BME280;40266;52.434;17.056;2022-07-29T09:33:00;101065.84;;;23.42;43.96
54369;BME280;40266;52.434;17.056;2022-07-29T09:36:07;101065.75;;;23.52;44.20
54369;BME280;40266;52.434;17.056;2022-07-29T09:39:01;101064.89;;;23.62;44.37
54369;BME280;40266;52.434;17.056;2022-07-29T09:41:52;101062.92;;;23.76;44.33
54369;BME280;40266;52.434;17.056;2022-07-29T09:44:55;101062.37;;;23.98;44.24
54369;BME280;40266;52.434;17.056;2022-07-29T09:47:54;101060.05;;;24.19;44.47
54369;BME280;40266;52.434;17.056;2022-07-29T09:50:40;101058.98;;;24.30;43.45
54369;BME280;40266;52.434;17.056;2022-07-29T09:53:36;101056.34;;;24.32;42.62
54369;BME280;40266;52.434;17.056;2022-07-29T09:56:19;101055.73;;;24.35;42.71
54369;BME280;40266;52.434;17.056;2022-07-29T09:59:07;101052.45;;;24.38;42.14
54369;BME280;40266;52.434;17.056;2022-07-29T10:01:51;101051.64;;;24.40;41.48
54369;BME280;40266;52.434;17.056;2022-07-29T10:04:41;101050.26;;;24.42;41.69
54369;BME280;40266;52.434;17.056;2022-07-29T10:07:27;101049.34;;;24.42;41.12
54369;BME280;40266;52.434;17.056;2022-07-29T10:10:34;101047.20;;;24.37;41.39
54369;BME280;40266;52.434;17.056;2022-07-29T10:13:18;101046.79;;;24.38;41.09
54369;BME280;40266;52.434;17.056;2022-07-29T10:16:01;101043.17;;;24.36;40.85
54369;BME280;40266;52.434;17.056;2022-07-29T10:18:45;101040.27;;;24.34;40.11
54369;BME280;40266;52.434;17.056;2022-07-29T10:21:29;101035.58;;;24.30;39.19
54369;BME280;40266;52.434;17.056;2022-07-29T10:24:18;101033.15;;;24.29;39.96
54369;BME280;40266;52.434;17.056;2022-07-29T10:27:04;101030.31;;;24.31;39.88
54369;BME280;40266;52.434;17.056;2022-07-29T10:29:48;101027.50;;;24.30;39.05
54369;BME280;40266;52.434;17.056;2022-07-29T10:35:38;101029.02;;;24.39;40.69
54369;BME280;40266;52.434;17.056;2022-07-29T10:38:45;101022.10;;;24.60;39.57
54369;BME280;40266;52.434;17.056;2022-07-29T10:44:26;101019.95;;;25.07;39.46
54369;BME280;40266;52.434;17.056;2022-07-29T10:47:26;101022.27;;;25.22;38.20
54369;BME280;40266;52.434;17.056;2022-07-29T10:50:09;101018.46;;;25.35;37.83
54369;BME280;40266;52.434;17.056;2022-07-29T10:52:59;101013.44;;;25.47;38.43
54369;BME280;40266;52.434;17.056;2022-07-29T10:55:42;101008.63;;;25.57;38.21
54369;BME280;40266;52.434;17.056;2022-07-29T10:58:29;101006.92;;;25.63;37.53
54369;BME280;40266;52.434;17.056;2022-07-29T11:01:32;101005.20;;;25.64;37.02
54369;BME280;40266;52.434;17.056;2022-07-29T11:07:30;100996.63;;;25.80;36.47
54369;BME280;40266;52.434;17.056;2022-07-29T11:10:27;100999.44;;;25.91;37.54
54369;BME280;40266;52.434;17.056;2022-07-29T11:16:25;100992.52;;;26.18;35.51
54369;BME280;40266;52.434;17.056;2022-07-29T11:21:55;101000.61;;;26.36;35.99
54369;BME280;40266;52.434;17.056;2022-07-29T11:24:40;100995.31;;;26.39;35.76
54369;BME280;40266;52.434;17.056;2022-07-29T11:27:31;100996.67;;;26.19;34.48
54369;BME280;40266;52.434;17.056;2022-07-29T11:30:51;101000.31;;;25.91;34.24
54369;BME280;40266;52.434;17.056;2022-07-29T11:33:35;100992.73;;;25.78;34.68
54369;BME280;40266;52.434;17.056;2022-07-29T11:42:59;100998.63;;;26.20;33.99
54369;BME280;40266;52.434;17.056;2022-07-29T11:45:46;100986.81;;;26.29;34.25
54369;BME280;40266;52.434;17.056;2022-07-29T11:48:30;100989.03;;;26.39;34.27
54369;BME280;40266;52.434;17.056;2022-07-29T11:51:16;100981.37;;;26.39;32.34
54369;BME280;40266;52.434;17.056;2022-07-29T11:53:59;100983.72;;;26.46;32.93
54369;BME280;40266;52.434;17.056;2022-07-29T11:56:47;100982.60;;;26.50;32.96
54369;BME280;40266;52.434;17.056;2022-07-29T11:59:31;100982.31;;;26.59;32.87
54369;BME280;40266;52.434;17.056;2022-07-29T12:02:23;100979.31;;;26.69;33.90
54369;BME280;40266;52.434;17.056;2022-07-29T12:08:21;100975.54;;;26.88;33.38
54369;BME280;40266;52.434;17.056;2022-07-29T12:11:15;100967.19;;;26.80;33.69
54369;BME280;40266;52.434;17.056;2022-07-29T12:14:31;100966.98;;;26.78;34.29
54369;BME280;40266;52.434;17.056;2022-07-29T12:17:30;100964.32;;;26.89;33.18
54369;BME280;40266;52.434;17.056;2022-07-29T12:20:22;100967.69;;;26.98;33.55
54369;BME280;40266;52.434;17.056;2022-07-29T12:23:07;100965.34;;;26.90;33.61
54369;BME280;40266;52.434;17.056;2022-07-29T12:25:51;100959.33;;;26.75;33.60
54369;BME280;40266;52.434;17.056;2022-07-29T12:28:38;100963.71;;;26.67;33.89
54369;BME280;40266;52.434;17.056;2022-07-29T12:31:22;100963.94;;;26.56;33.65
54369;BME280;40266;52.434;17.056;2022-07-29T12:34:27;100956.95;;;26.58;33.37
54369;BME280;40266;52.434;17.056;2022-07-29T12:37:14;100958.80;;;26.62;32.13
54369;BME280;40266;52.434;17.056;2022-07-29T12:40:03;100947.88;;;26.48;32.88
54369;BME280;40266;52.434;17.056;2022-07-29T12:43:08;100948.59;;;26.44;33.50
54369;BME280;40266;52.434;17.056;2022-07-29T12:45:56;100951.61;;;26.44;33.72
54369;BME280;40266;52.434;17.056;2022-07-29T12:48:41;100951.19;;;26.49;34.05
54369;BME280;40266;52.434;17.056;2022-07-29T12:51:36;100941.66;;;26.59;34.35
54369;BME280;40266;52.434;17.056;2022-07-29T12:54:22;100936.64;;;26.72;33.12
54369;BME280;40266;52.434;17.056;2022-07-29T12:57:07;100928.20;;;26.77;32.64
54369;BME280;40266;52.434;17.056;2022-07-29T13:00:10;100926.33;;;26.71;32.88
54369;BME280;40266;52.434;17.056;2022-07-29T13:02:55;100928.48;;;26.67;33.13
54369;BME280;40266;52.434;17.056;2022-07-29T13:05:43;100929.02;;;26.62;33.20
54369;BME280;40266;52.434;17.056;2022-07-29T13:08:40;100927.58;;;26.56;32.32
54369;BME280;40266;52.434;17.056;2022-07-29T13:11:45;100925.93;;;26.51;32.67
54369;BME280;40266;52.434;17.056;2022-07-29T13:14:32;100918.89;;;26.52;33.15
54369;BME280;40266;52.434;17.056;2022-07-29T13:17:20;100907.83;;;26.59;33.30
54369;BME280;40266;52.434;17.056;2022-07-29T13:20:10;100908.36;;;26.67;32.72
54369;BME280;40266;52.434;17.056;2022-07-29T13:22:59;100909.48;;;26.76;31.30
54369;BME280;40266;52.434;17.056;2022-07-29T13:25:43;100910.16;;;26.83;31.73
54369;BME280;40266;52.434;17.056;2022-07-29T13:28:26;100910.94;;;26.91;31.83
54369;BME280;40266;52.434;17.056;2022-07-29T13:31:09;100910.61;;;26.84;31.07
54369;BME280;40266;52.434;17.056;2022-07-29T13:33:56;100902.20;;;26.75;32.01
54369;BME280;40266;52.434;17.056;2022-07-29T13:36:42;100901.55;;;26.85;31.97
54369;BME280;40266;52.434;17.056;2022-07-29T13:39:27;100901.20;;;26.83;32.16
54369;BME280;40266;52.434;17.056;2022-07-29T13:42:11;100899.92;;;26.72;31.86
54369;BME280;40266;52.434;17.056;2022-07-29T13:45:01;100899.50;;;26.62;31.59
54369;BME280;40266;52.434;17.056;2022-07-29T13:47:49;100897.11;;;26.54;31.35
54369;BME280;40266;52.434;17.056;2022-07-29T13:50:38;100895.23;;;26.50;32.01
54369;BME280;40266;52.434;17.056;2022-07-29T13:53:31;100886.64;;;26.55;31.19
54369;BME280;40266;52.434;17.056;2022-07-29T13:56:15;100879.52;;;26.59;31.61
54369;BME280;40266;52.434;17.056;2022-07-29T13:59:06;100877.77;;;26.61;32.16
54369;BME280;40266;52.434;17.056;2022-07-29T14:01:53;100877.16;;;26.57;31.81
54369;BME280;40266;52.434;17.056;2022-07-29T14:04:41;100872.87;;;26.52;32.09
54369;BME280;40266;52.434;17.056;2022-07-29T14:07:24;100874.53;;;26.39;31.92
54369;BME280;40266;52.434;17.056;2022-07-29T14:10:08;100873.96;;;26.23;32.36
54369;BME280;40266;52.434;17.056;2022-07-29T14:12:51;100870.02;;;26.12;32.87
54369;BME280;40266;52.434;17.056;2022-07-29T14:15:40;100868.50;;;26.11;32.19
54369;BME280;40266;52.434;17.056;2022-07-29T14:18:23;100864.66;;;26.16;32.43
54369;BME280;40266;52.434;17.056;2022-07-29T14:21:28;100865.70;;;26.13;31.89
54369;BME280;40266;52.434;17.056;2022-07-29T14:24:15;100864.04;;;26.06;31.81
54369;BME280;40266;52.434;17.056;2022-07-29T14:27:04;100859.73;;;26.13;31.79
54369;BME280;40266;52.434;17.056;2022-07-29T14:29:51;100859.75;;;26.24;32.34
54369;BME280;40266;52.434;17.056;2022-07-29T14:32:34;100855.80;;;26.22;32.34
54369;BME280;40266;52.434;17.056;2022-07-29T14:35:20;100855.36;;;26.16;32.10
54369;BME280;40266;52.434;17.056;2022-07-29T14:38:03;100854.11;;;26.09;31.68
54369;BME280;40266;52.434;17.056;2022-07-29T14:40:47;100856.49;;;26.04;31.65
54369;BME280;40266;52.434;17.056;2022-07-29T14:43:35;100862.10;;;25.97;31.11
54369;BME280;40266;52.434;17.056;2022-07-29T14:46:18;100849.39;;;25.95;31.70
54369;BME280;40266;52.434;17.056;2022-07-29T14:49:01;100852.80;;;26.03;31.98
54369;BME280;40266;52.434;17.056;2022-07-29T14:51:48;100857.26;;;26.10;31.91
54369;BME280;40266;52.434;17.056;2022-07-29T14:54:31;100859.14;;;26.20;32.15
54369;BME280;40266;52.434;17.056;2022-07-29T14:57:16;100861.29;;;26.27;31.81
54369;BME280;40266;52.434;17.056;2022-07-29T14:59:58;100862.05;;;26.22;31.58
54369;BME280;40266;52.434;17.056;2022-07-29T15:02:41;100860.13;;;26.13;31.79
54369;BME280;40266;52.434;17.056;2022-07-29T15:05:50;100857.49;;;26.07;31.49
54369;BME280;40266;52.434;17.056;2022-07-29T15:08:34;100852.73;;;26.06;31.51
54369;BME280;40266;52.434;17.056;2022-07-29T15:11:17;100850.06;;;26.18;31.91
54369;BME280;40266;52.434;17.056;2022-07-29T15:14:00;100845.93;;;26.29;31.75
54369;BME280;40266;52.434;17.056;2022-07-29T15:16:44;100850.19;;;26.41;31.45
54369;BME280;40266;52.434;17.056;2022-07-29T15:19:30;100852.23;;;26.42;31.86
54369;BME280;40266;52.434;17.056;2022-07-29T15:22:13;100849.80;;;26.47;31.81
54369;BME280;40266;52.434;17.056;2022-07-29T15:25:05;100849.65;;;26.51;31.73
54369;BME280;40266;52.434;17.056;2022-07-29T15:27:48;100841.69;;;26.52;31.86
54369;BME280;40266;52.434;17.056;2022-07-29T15:30:37;100833.79;;;26.42;31.66
54369;BME280;40266;52.434;17.056;2022-07-29T15:33:23;100836.49;;;26.37;32.11
54369;BME280;40266;52.434;17.056;2022-07-29T15:36:12;100836.29;;;26.33;31.92
54369;BME280;40266;52.434;17.056;2022-07-29T15:39:19;100838.73;;;26.29;31.70
54369;BME280;40266;52.434;17.056;2022-07-29T15:42:02;100833.59;;;26.31;31.94
54369;BME280;40266;52.434;17.056;2022-07-29T15:44:48;100830.88;;;26.36;32.01
54369;BME280;40266;52.434;17.056;2022-07-29T15:47:32;100831.27;;;26.40;31.93
54369;BME280;40266;52.434;17.056;2022-07-29T15:50:17;100833.04;;;26.40;31.78
54369;BME280;40266;52.434;17.056;2022-07-29T15:53:02;100822.20;;;26.37;32.16
54369;BME280;40266;52.434;17.056;2022-07-29T15:55:51;100822.92;;;26.35;32.48
54369;BME280;40266;52.434;17.056;2022-07-29T15:58:34;100819.83;;;26.38;31.61
54369;BME280;40266;52.434;17.056;2022-07-29T16:01:18;100824.04;;;26.36;31.27
54369;BME280;40266;52.434;17.056;2022-07-29T16:04:01;100818.69;;;26.36;30.60
54369;BME280;40266;52.434;17.056;2022-07-29T16:06:46;100817.75;;;26.32;31.41
54369;BME280;40266;52.434;17.056;2022-07-29T16:09:30;100822.25;;;26.29;31.46
54369;BME280;40266;52.434;17.056;2022-07-29T16:12:13;100822.15;;;26.28;31.67
54369;BME280;40266;52.434;17.056;2022-07-29T16:14:57;100814.45;;;26.33;32.02
54369;BME280;40266;52.434;17.056;2022-07-29T16:17:52;100816.05;;;26.40;31.78
54369;BME280;40266;52.434;17.056;2022-07-29T16:20:39;100821.89;;;26.43;31.79
54369;BME280;40266;52.434;17.056;2022-07-29T16:23:23;100823.45;;;26.37;32.03
54369;BME280;40266;52.434;17.056;2022-07-29T16:26:07;100827.35;;;26.30;32.31
54369;BME280;40266;52.434;17.056;2022-07-29T16:28:50;100831.53;;;26.27;32.27
54369;BME280;40266;52.434;17.056;2022-07-29T16:31:33;100827.06;;;26.25;32.12
54369;BME280;40266;52.434;17.056;2022-07-29T16:34:36;100828.72;;;26.24;31.90
54369;BME280;40266;52.434;17.056;2022-07-29T16:37:19;100823.33;;;26.20;32.06
54369;BME280;40266;52.434;17.056;2022-07-29T16:40:05;100823.83;;;26.12;32.54
54369;BME280;40266;52.434;17.056;2022-07-29T16:42:53;100823.61;;;26.01;32.66
54369;BME280;40266;52.434;17.056;2022-07-29T16:45:39;100818.31;;;25.85;32.85
54369;BME280;40266;52.434;17.056;2022-07-29T16:48:28;100822.05;;;25.71;33.34
54369;BME280;40266;52.434;17.056;2022-07-29T16:51:15;100818.77;;;25.61;33.41
54369;BME280;40266;52.434;17.056;2022-07-29T16:53:58;100817.64;;;25.55;33.92
54369;BME280;40266;52.434;17.056;2022-07-29T16:56:41;100814.61;;;25.52;33.91
54369;BME280;40266;52.434;17.056;2022-07-29T16:59:25;100810.94;;;25.54;33.93
54369;BME280;40266;52.434;17.056;2022-07-29T17:02:08;100813.55;;;25.52;34.00
54369;BME280;40266;52.434;17.056;2022-07-29T17:04:56;100813.52;;;25.50;33.79
54369;BME280;40266;52.434;17.056;2022-07-29T17:07:39;100812.92;;;25.48;33.95
54369;BME280;40266;52.434;17.056;2022-07-29T17:10:23;100808.04;;;25.44;33.92
54369;BME280;40266;52.434;17.056;2022-07-29T17:13:09;100807.73;;;25.42;34.02
54369;BME280;40266;52.434;17.056;2022-07-29T17:15:56;100806.80;;;25.40;33.96
54369;BME280;40266;52.434;17.056;2022-07-29T17:18:52;100803.02;;;25.33;34.11
54369;BME280;40266;52.434;17.056;2022-07-29T17:21:36;100798.65;;;25.27;34.43
54369;BME280;40266;52.434;17.056;2022-07-29T17:24:33;100796.86;;;25.22;34.60
54369;BME280;40266;52.434;17.056;2022-07-29T17:27:17;100800.89;;;25.21;34.66
54369;BME280;40266;52.434;17.056;2022-07-29T17:30:06;100798.55;;;25.17;34.66
54369;BME280;40266;52.434;17.056;2022-07-29T17:33:11;100795.30;;;25.10;34.69
54369;BME280;40266;52.434;17.056;2022-07-29T17:36:02;100792.95;;;25.05;34.72